createdAt,value
2019-05-01T00:01:24.092Z,4.60
2019-05-01T00:04:37.223Z,5.25
2019-05-01T00:07:16.909Z,5.60
2019-05-01T00:09:50.881Z,3.83
2019-05-01T00:12:24.671Z,5.78
2019-05-01T00:14:59.826Z,7.42
2019-05-01T00:17:34.400Z,5.25
2019-05-01T00:20:08.013Z,6.00
2019-05-01T00:25:12.014Z,3.20
2019-05-01T00:27:45.531Z,5.33
2019-05-01T00:30:29.671Z,7.08
2019-05-01T00:32:56.234Z,4.72
2019-05-01T00:35:29.063Z,4.80
2019-05-01T00:38:02.382Z,5.80
2019-05-01T00:40:35.682Z,5.10
2019-05-01T00:43:09.038Z,4.53
2019-05-01T00:45:42.042Z,4.75
2019-05-01T00:48:14.747Z,5.40
2019-05-01T00:50:47.785Z,4.55
2019-05-01T00:53:21.330Z,6.28
2019-05-01T00:56:15.745Z,4.42
2019-05-01T00:59:07.658Z,5.67
2019-05-01T01:02:00.104Z,6.47
2019-05-01T01:04:33.567Z,3.40
2019-05-01T01:09:37.700Z,5.37
2019-05-01T01:12:10.968Z,4.70
2019-05-01T01:14:44.339Z,4.87
2019-05-01T01:17:17.742Z,4.15
2019-05-01T01:19:51.128Z,3.98
2019-05-01T01:22:23.879Z,3.40
2019-05-01T01:24:57.658Z,3.37
2019-05-01T01:27:31.090Z,5.05
2019-05-01T01:30:03.962Z,5.95
2019-05-01T01:32:36.354Z,5.90
2019-05-01T01:35:10.083Z,5.53
2019-05-01T01:37:42.736Z,5.95
2019-05-01T01:40:15.789Z,4.33
2019-05-01T01:45:27.648Z,7.60
2019-05-01T01:48:16.090Z,5.62
2019-05-01T01:50:49.921Z,6.20
2019-05-01T01:53:24.437Z,5.47
2019-05-01T01:55:58.062Z,4.75
2019-05-01T01:58:31.446Z,5.08
2019-05-01T02:01:18.327Z,5.05
2019-05-01T02:03:56.924Z,4.70
2019-05-01T02:06:30.201Z,6.55
2019-05-01T02:09:03.300Z,6.42
2019-05-01T02:11:36.359Z,5.03
2019-05-01T02:16:40.485Z,6.00
2019-05-01T02:19:12.957Z,5.92
2019-05-01T02:21:46.308Z,4.97
2019-05-01T02:24:19.271Z,6.70
2019-05-01T02:26:54.637Z,6.15
2019-05-01T02:29:37.873Z,5.67
2019-05-01T02:32:10.890Z,6.37
2019-05-01T02:34:45.139Z,7.78
2019-05-01T02:37:20.681Z,5.53
2019-05-01T02:39:55.381Z,5.37
2019-05-01T02:42:33.259Z,6.17
2019-05-01T02:45:07.297Z,7.10
2019-05-01T02:47:42.350Z,7.03
2019-05-01T02:50:16.638Z,7.50
2019-05-01T02:52:50.605Z,6.80
2019-05-01T02:55:30.749Z,9.10
2019-05-01T02:58:04.368Z,5.55
2019-05-01T03:03:10.960Z,3.70
2019-05-01T03:05:44.815Z,4.10
2019-05-01T03:08:18.312Z,5.97
2019-05-01T03:13:22.387Z,5.47
2019-05-01T03:15:55.861Z,8.13
2019-05-01T03:18:35.455Z,5.78
2019-05-01T03:21:13.911Z,5.33
2019-05-01T03:24:06.569Z,5.33
2019-05-01T03:26:39.921Z,9.10
2019-05-01T03:29:12.944Z,5.28
2019-05-01T03:32:12.870Z,7.33
2019-05-01T03:34:23.599Z,7.15
2019-05-01T03:36:57.167Z,6.67
2019-05-01T03:42:01.951Z,5.42
2019-05-01T03:44:35.492Z,5.10
2019-05-01T03:47:09.427Z,7.17
2019-05-01T03:49:42.293Z,6.28
2019-05-01T03:52:16.520Z,5.70
2019-05-01T03:54:49.884Z,6.08
2019-05-01T03:57:23.199Z,4.90
2019-05-01T04:02:47.309Z,6.47
2019-05-01T04:05:20.792Z,5.45
2019-05-01T04:07:53.976Z,4.78
2019-05-01T04:10:28.289Z,7.45
2019-05-01T04:13:01.755Z,5.35
2019-05-01T04:15:35.729Z,5.70
2019-05-01T04:18:09.464Z,4.62
2019-05-01T04:20:43.169Z,7.10
2019-05-01T04:23:16.580Z,5.67
2019-05-01T04:25:50.781Z,5.97
2019-05-01T04:28:33.450Z,5.10
2019-05-01T04:31:17.873Z,5.65
2019-05-01T04:33:54.339Z,4.85
2019-05-01T04:36:33.254Z,8.20
2019-05-01T04:39:08.197Z,7.10
2019-05-01T04:41:41.670Z,8.63
2019-05-01T04:44:14.785Z,5.87
2019-05-01T04:46:48.292Z,6.20
2019-05-01T04:49:22.189Z,6.55
2019-05-01T04:52:07.136Z,6.30
2019-05-01T04:54:40.478Z,6.10
2019-05-01T04:57:14.155Z,6.35
2019-05-01T04:59:48.019Z,7.50
2019-05-01T05:02:30.127Z,6.87
2019-05-01T05:05:03.707Z,6.62
2019-05-01T05:10:08.238Z,5.53
2019-05-01T05:13:09.963Z,6.17
2019-05-01T05:15:53.079Z,7.05
2019-05-01T05:18:26.808Z,9.50
2019-05-01T05:21:00.726Z,7.33
2019-05-01T05:23:34.908Z,7.22
2019-05-01T05:26:08.442Z,6.87
2019-05-01T05:31:15.703Z,7.28
2019-05-01T05:33:50.128Z,7.53
2019-05-01T05:36:26.529Z,8.68
2019-05-01T05:39:20.964Z,7.05
2019-05-01T05:41:56.181Z,8.08
2019-05-01T05:44:29.558Z,9.78
2019-05-01T05:47:02.196Z,7.25
2019-05-01T05:49:35.345Z,11.20
2019-05-01T05:52:42.019Z,8.97
2019-05-01T05:55:27.870Z,8.63
2019-05-01T05:58:21.946Z,11.85
2019-05-01T06:04:39.970Z,7.12
2019-05-01T06:07:29.673Z,7.15
2019-05-01T06:10:29.096Z,8.45
2019-05-01T06:13:21.923Z,7.97
2019-05-01T06:16:12.212Z,6.92
2019-05-01T06:18:58.978Z,10.78
2019-05-01T06:21:48.208Z,7.67
2019-05-01T06:24:27.060Z,8.30
2019-05-01T06:27:01.394Z,7.72
2019-05-01T06:29:35.819Z,8.48
2019-05-01T06:32:09.770Z,9.95
2019-05-01T06:34:42.759Z,9.75
2019-05-01T06:37:16.291Z,9.53
2019-05-01T06:39:49.930Z,9.65
2019-05-01T06:42:23.279Z,8.78
2019-05-01T06:45:03.855Z,11.48
2019-05-01T06:47:52.173Z,10.00
2019-05-01T06:50:37.122Z,10.65
2019-05-01T06:53:10.677Z,10.75
2019-05-01T06:55:44.832Z,12.00
2019-05-01T06:58:20.385Z,10.75
2019-05-01T07:00:54.517Z,12.90
2019-05-01T07:03:28.119Z,12.45
2019-05-01T07:06:13.852Z,13.53
2019-05-01T07:08:39.522Z,11.88
2019-05-01T07:11:15.505Z,13.72
2019-05-01T07:13:55.638Z,13.32
2019-05-01T07:16:33.158Z,12.40
2019-05-01T07:19:07.572Z,14.53
2019-05-01T07:21:40.886Z,10.98
2019-05-01T07:24:13.982Z,11.85
2019-05-01T07:26:49.131Z,12.63
2019-05-01T07:29:25.180Z,14.15
2019-05-01T07:32:01.695Z,14.13
2019-05-01T07:34:34.134Z,14.95
2019-05-01T07:37:08.643Z,14.68
2019-05-01T07:39:44.944Z,13.75
2019-05-01T07:42:29.338Z,15.30
2019-05-01T07:45:27.205Z,14.75
2019-05-01T07:48:05.629Z,16.62
2019-05-01T07:50:39.061Z,13.38
2019-05-01T07:53:13.053Z,14.23
2019-05-01T07:55:48.659Z,18.15
2019-05-01T07:58:22.052Z,14.18
2019-05-01T08:01:00.416Z,14.68
2019-05-01T08:03:38.062Z,19.02
2019-05-01T08:06:10.352Z,16.90
2019-05-01T08:08:44.076Z,18.82
2019-05-01T08:11:18.145Z,18.98
2019-05-01T08:13:51.517Z,20.30
2019-05-01T08:16:24.957Z,15.48
2019-05-01T08:19:05.946Z,15.90
2019-05-01T08:21:57.043Z,18.57
2019-05-01T08:24:30.196Z,18.07
2019-05-01T08:27:03.487Z,19.48
2019-05-01T08:29:58.555Z,17.23
2019-05-01T08:32:45.575Z,21.33
2019-05-01T08:35:21.784Z,21.33
2019-05-01T08:37:58.488Z,22.32
2019-05-01T08:40:31.707Z,22.60
2019-05-01T08:43:05.162Z,19.10
2019-05-01T08:45:57.126Z,24.60
2019-05-01T08:48:42.276Z,21.70
2019-05-01T08:51:15.573Z,26.33
2019-05-01T08:53:52.708Z,23.07
2019-05-01T08:56:23.760Z,22.73
2019-05-01T08:58:56.765Z,23.13
2019-05-01T09:01:30.689Z,21.33
2019-05-01T09:04:12.580Z,20.77
2019-05-01T09:06:39.448Z,25.00
2019-05-01T09:09:15.114Z,23.37
2019-05-01T09:11:48.790Z,22.87
2019-05-01T09:14:22.063Z,24.17
2019-05-01T09:16:55.230Z,24.43
2019-05-01T09:19:28.651Z,25.90
2019-05-01T09:22:02.200Z,26.10
2019-05-01T09:24:35.986Z,25.03
2019-05-01T09:27:29.499Z,22.77
2019-05-01T09:30:04.456Z,22.00
2019-05-01T09:32:37.904Z,27.10
2019-05-01T09:35:15.907Z,26.27
2019-05-01T09:37:46.597Z,27.83
2019-05-01T09:40:19.920Z,29.77
2019-05-01T09:42:54.613Z,28.00
2019-05-01T09:45:28.429Z,26.43
2019-05-01T09:48:01.904Z,27.70
2019-05-01T09:50:37.122Z,26.40
2019-05-01T09:53:34.186Z,21.63
2019-05-01T09:56:13.372Z,26.30
2019-05-01T09:58:46.630Z,25.83
2019-05-01T10:01:24.083Z,26.13
2019-05-01T10:03:55.100Z,25.97
2019-05-01T10:06:30.033Z,28.17
2019-05-01T10:09:03.810Z,25.40
2019-05-01T10:11:40.648Z,27.73
2019-05-01T10:14:13.467Z,21.30
2019-05-01T10:16:47.480Z,27.47
2019-05-01T10:19:20.901Z,24.07
2019-05-01T10:21:53.673Z,28.20
2019-05-01T10:27:04.473Z,25.08
2019-05-01T10:29:56.912Z,26.63
2019-05-01T10:32:34.758Z,25.27
2019-05-01T10:35:21.577Z,24.20
2019-05-01T10:37:55.535Z,26.10
2019-05-01T10:40:32.307Z,23.27
2019-05-01T10:43:03.203Z,23.23
2019-05-01T10:48:07.608Z,23.57
2019-05-01T10:50:40.699Z,24.05
2019-05-01T10:53:14.523Z,26.40
2019-05-01T10:55:47.196Z,27.90
2019-05-01T10:58:20.881Z,25.23
2019-05-01T11:01:00.372Z,23.10
2019-05-01T11:03:35.314Z,27.63
2019-05-01T11:06:08.370Z,25.20
2019-05-01T11:08:41.419Z,23.23
2019-05-01T11:11:15.379Z,25.33
2019-05-01T11:13:48.402Z,24.50
2019-05-01T11:16:22.194Z,24.60
2019-05-01T11:18:55.718Z,24.13
2019-05-01T11:21:28.764Z,27.20
2019-05-01T11:24:02.610Z,23.50
2019-05-01T11:26:35.768Z,24.70
2019-05-01T11:29:08.769Z,25.03
2019-05-01T11:31:54.340Z,23.00
2019-05-01T11:34:55.581Z,23.57
2019-05-01T11:37:37.427Z,24.63
2019-05-01T11:40:20.571Z,27.73
2019-05-01T11:42:53.770Z,24.57
2019-05-01T11:45:26.502Z,26.53
2019-05-01T11:47:59.641Z,24.77
2019-05-01T11:50:32.389Z,26.62
2019-05-01T11:53:05.955Z,25.95
2019-05-01T11:55:39.602Z,26.43
2019-05-01T11:58:13.013Z,24.33
2019-05-01T12:00:47.793Z,25.43
2019-05-01T12:03:21.103Z,26.33
2019-05-01T12:05:54.196Z,23.97
2019-05-01T12:08:28.167Z,28.80
2019-05-01T12:11:03.178Z,29.07
2019-05-01T12:13:43.576Z,20.50
2019-05-01T12:16:26.386Z,26.60
2019-05-01T12:18:59.600Z,33.20
2019-05-01T12:21:32.666Z,29.83
2019-05-01T12:24:05.505Z,27.17
2019-05-01T12:29:10.878Z,26.33
2019-05-01T12:31:44.075Z,24.10
2019-05-01T12:34:17.041Z,24.67
2019-05-01T12:36:52.182Z,28.90
2019-05-01T12:39:25.313Z,23.90
2019-05-01T12:42:00.857Z,23.20
2019-05-01T12:44:34.571Z,22.37
2019-05-01T12:47:17.469Z,23.93
2019-05-01T12:49:50.971Z,22.75
2019-05-01T12:52:32.730Z,21.60
2019-05-01T12:55:11.521Z,23.60
2019-05-01T12:57:45.468Z,22.57
2019-05-01T13:00:20.477Z,27.10
2019-05-01T13:02:54.063Z,22.57
2019-05-01T13:05:27.280Z,24.30
2019-05-01T13:08:00.719Z,22.27
2019-05-01T13:10:33.416Z,19.73
2019-05-01T13:15:37.596Z,18.95
2019-05-01T13:18:10.601Z,19.92
2019-05-01T13:20:44.184Z,23.63
2019-05-01T13:23:18.606Z,20.87
2019-05-01T13:25:52.508Z,16.87
2019-05-01T13:29:02.515Z,34.43
2019-05-01T13:31:54.429Z,22.90
2019-05-01T13:34:28.085Z,22.37
2019-05-01T13:37:03.091Z,36.67
2019-05-01T13:39:36.426Z,36.43
2019-05-01T13:42:09.629Z,47.60
2019-05-01T13:44:43.947Z,20.00
2019-05-01T13:47:17.067Z,18.93
2019-05-01T13:49:50.438Z,16.53
2019-05-01T13:52:23.960Z,23.37
2019-05-01T13:54:57.852Z,14.03
2019-05-01T13:57:31.125Z,14.93
2019-05-01T14:00:04.378Z,15.67
2019-05-01T14:02:37.413Z,15.03
2019-05-01T14:05:11.384Z,16.87
2019-05-01T14:07:44.797Z,14.00
2019-05-01T14:10:18.141Z,11.93
2019-05-01T14:12:51.417Z,15.40
2019-05-01T14:15:25.156Z,16.37
2019-05-01T14:17:58.630Z,14.23
2019-05-01T14:20:50.602Z,13.57
2019-05-01T14:23:42.504Z,14.83
2019-05-01T14:26:17.052Z,13.28
2019-05-01T14:28:50.708Z,19.60
2019-05-01T14:31:25.605Z,14.87
2019-05-01T14:33:58.796Z,12.40
2019-05-01T14:36:32.399Z,14.53
2019-05-01T14:39:07.308Z,12.57
2019-05-01T14:41:40.511Z,14.50
2019-05-01T14:44:14.164Z,15.80
2019-05-01T14:46:47.020Z,12.37
2019-05-01T14:49:19.903Z,15.30
2019-05-01T14:51:53.739Z,14.40
2019-05-01T14:54:27.685Z,11.00
2019-05-01T14:57:01.253Z,11.47
2019-05-01T14:59:34.842Z,11.95
2019-05-01T15:02:07.917Z,10.48
2019-05-01T15:04:41.782Z,11.43
2019-05-01T15:07:15.055Z,11.20
2019-05-01T15:09:48.138Z,12.60
2019-05-01T15:12:21.886Z,12.57
2019-05-01T15:15:04.185Z,12.57
2019-05-01T15:17:43.364Z,7.80
2019-05-01T15:20:16.971Z,10.48
2019-05-01T15:22:49.839Z,10.80
2019-05-01T15:25:22.936Z,11.08
2019-05-01T15:27:56.225Z,13.83
2019-05-01T15:30:30.305Z,14.13
2019-05-01T15:33:03.911Z,9.98
2019-05-01T15:35:37.744Z,11.08
2019-05-01T15:38:11.537Z,10.72
2019-05-01T15:41:18.603Z,17.73
2019-05-01T15:44:10.124Z,11.10
2019-05-01T15:46:43.425Z,10.17
2019-05-01T15:49:16.743Z,12.07
2019-05-01T15:51:49.775Z,15.07
2019-05-01T15:54:23.791Z,10.30
2019-05-01T15:56:57.136Z,10.67
2019-05-01T15:59:30.532Z,10.60
2019-05-01T16:02:04.137Z,9.27
2019-05-01T16:04:37.582Z,10.43
2019-05-01T16:07:10.745Z,10.60
2019-05-01T16:09:43.533Z,10.50
2019-05-01T16:12:44.630Z,8.47
2019-05-01T16:15:29.846Z,12.33
2019-05-01T16:18:04.109Z,12.20
2019-05-01T16:20:37.602Z,12.23
2019-05-01T16:23:11.205Z,8.80
2019-05-01T16:25:45.222Z,12.10
2019-05-01T16:28:18.562Z,11.63
2019-05-01T16:30:52.026Z,13.27
2019-05-01T16:33:25.444Z,9.33
2019-05-01T16:35:58.785Z,10.33
2019-05-01T16:38:44.008Z,10.20
2019-05-01T16:41:17.471Z,14.40
2019-05-01T16:43:50.951Z,10.00
2019-05-01T16:46:25.626Z,9.10
2019-05-01T16:48:59.059Z,10.47
2019-05-01T16:51:32.656Z,9.77
2019-05-01T16:54:06.830Z,9.07
2019-05-01T16:56:39.580Z,11.63
2019-05-01T16:59:13.098Z,11.13
2019-05-01T17:02:01.558Z,11.00
2019-05-01T17:04:40.751Z,9.23
2019-05-01T17:07:36.030Z,8.80
2019-05-01T17:10:17.677Z,10.17
2019-05-01T17:12:55.578Z,15.20
2019-05-01T17:15:33.693Z,9.57
2019-05-01T17:18:07.365Z,17.97
2019-05-01T17:20:40.945Z,20.40
2019-05-01T17:23:14.726Z,24.57
2019-05-01T17:25:47.683Z,20.13
2019-05-01T17:28:21.219Z,15.00
2019-05-01T17:30:58.675Z,21.67
2019-05-01T17:33:32.079Z,13.03
2019-05-01T17:36:05.815Z,14.70
2019-05-01T17:38:49.239Z,15.00
2019-05-01T17:41:14.308Z,14.80
2019-05-01T17:43:49.364Z,14.17
2019-05-01T17:46:22.791Z,14.60
2019-05-01T17:48:56.196Z,10.87
2019-05-01T17:51:29.548Z,11.27
2019-05-01T17:54:02.898Z,11.03
2019-05-01T17:56:36.038Z,14.30
2019-05-01T17:59:09.405Z,13.77
2019-05-01T18:01:59.791Z,10.97
2019-05-01T18:04:50.382Z,12.53
2019-05-01T18:07:24.169Z,13.63
2019-05-01T18:09:57.633Z,12.43
2019-05-01T18:12:31.652Z,13.17
2019-05-01T18:15:05.175Z,12.27
2019-05-01T18:17:38.690Z,15.53
2019-05-01T18:20:12.600Z,13.07
2019-05-01T18:23:08.500Z,14.43
2019-05-01T18:26:04.905Z,14.27
2019-05-01T18:29:05.669Z,12.97
2019-05-01T18:31:35.749Z,16.47
2019-05-01T18:34:08.961Z,15.80
2019-05-01T18:36:47.059Z,14.23
2019-05-01T18:39:27.140Z,16.10
2019-05-01T18:42:05.458Z,14.50
2019-05-01T18:44:42.460Z,15.10
2019-05-01T18:47:14.437Z,15.70
2019-05-01T18:49:48.102Z,16.37
2019-05-01T18:52:21.621Z,14.83
2019-05-01T18:54:55.138Z,14.20
2019-05-01T18:57:29.024Z,15.20
2019-05-01T19:00:03.129Z,14.80
2019-05-01T19:02:39.035Z,14.80
2019-05-01T19:05:12.703Z,14.90
2019-05-01T19:07:46.124Z,12.80
2019-05-01T19:10:20.269Z,13.15
2019-05-01T19:12:54.116Z,12.50
2019-05-01T19:15:27.641Z,14.60
2019-05-01T19:18:00.448Z,14.37
2019-05-01T19:20:33.504Z,15.20
2019-05-01T19:23:07.365Z,17.32
2019-05-01T19:25:42.101Z,16.27
2019-05-01T19:28:15.823Z,14.98
2019-05-01T19:30:49.382Z,15.18
2019-05-01T19:33:23.164Z,17.25
2019-05-01T19:35:57.366Z,17.50
2019-05-01T19:38:34.809Z,19.32
2019-05-01T19:41:08.903Z,15.85
2019-05-01T19:43:42.152Z,17.10
2019-05-01T19:46:16.113Z,17.60
2019-05-01T19:48:52.650Z,17.82
2019-05-01T19:51:27.172Z,15.45
2019-05-01T19:54:00.971Z,15.63
2019-05-01T19:56:35.264Z,14.95
2019-05-01T19:59:10.164Z,17.90
2019-05-01T20:01:47.809Z,16.87
2019-05-01T20:04:20.200Z,15.98
2019-05-01T20:06:53.218Z,13.00
2019-05-01T20:09:27.199Z,14.73
2019-05-01T20:12:00.697Z,17.55
2019-05-01T20:14:34.429Z,18.87
2019-05-01T20:17:10.123Z,16.07
2019-05-01T20:19:44.139Z,14.38
2019-05-01T20:22:18.140Z,15.03
2019-05-01T20:24:51.919Z,17.92
2019-05-01T20:27:27.638Z,15.15
2019-05-01T20:30:00.834Z,14.75
2019-05-01T20:32:34.785Z,17.83
2019-05-01T20:35:08.187Z,16.87
2019-05-01T20:40:14.257Z,13.35
2019-05-01T20:42:48.538Z,19.07
2019-05-01T20:45:22.388Z,16.90
2019-05-01T20:47:57.934Z,20.50
2019-05-01T20:50:31.711Z,19.17
2019-05-01T20:53:05.194Z,20.80
2019-05-01T20:55:39.258Z,22.22
2019-05-01T20:58:16.781Z,14.43
2019-05-01T21:00:57.852Z,20.40
2019-05-01T21:03:32.236Z,18.98
2019-05-01T21:06:12.459Z,19.32
2019-05-01T21:08:49.858Z,15.00
2019-05-01T21:11:28.803Z,17.48
2019-05-01T21:14:16.098Z,19.52
2019-05-01T21:16:39.566Z,18.45
2019-05-01T21:19:13.161Z,16.95
2019-05-01T21:21:46.243Z,22.27
2019-05-01T21:24:19.667Z,19.48
2019-05-01T21:26:53.464Z,20.70
2019-05-01T21:29:26.699Z,19.80
2019-05-01T21:32:00.183Z,19.40
2019-05-01T21:34:34.512Z,21.95
2019-05-01T21:37:07.485Z,25.40
2019-05-01T21:39:40.793Z,31.77
2019-05-01T21:42:15.960Z,21.37
2019-05-01T21:44:49.736Z,21.97
2019-05-01T21:49:56.428Z,16.12
2019-05-01T21:52:29.840Z,20.17
2019-05-01T21:55:04.258Z,22.52
2019-05-01T21:57:40.713Z,20.17
2019-05-01T22:00:15.534Z,20.82
2019-05-01T22:02:48.640Z,25.90
2019-05-01T22:05:22.023Z,19.40
2019-05-01T22:07:58.642Z,22.70
2019-05-01T22:10:32.090Z,18.82
2019-05-01T22:13:05.676Z,23.10
2019-05-01T22:15:47.140Z,21.00
2019-05-01T22:18:35.778Z,20.57
2019-05-01T22:21:25.006Z,19.90
2019-05-01T22:24:17.692Z,18.45
2019-05-01T22:27:14.077Z,23.55
2019-05-01T22:29:53.546Z,23.25
2019-05-01T22:32:45.759Z,20.95
2019-05-01T22:35:27.374Z,20.80
2019-05-01T22:38:00.728Z,21.90
2019-05-01T22:41:07.533Z,21.30
2019-05-01T22:43:40.730Z,20.70
2019-05-01T22:46:22.734Z,21.97
2019-05-01T22:48:56.209Z,21.00
2019-05-01T22:54:00.057Z,17.98
2019-05-01T22:56:33.271Z,21.60
2019-05-01T22:59:06.873Z,20.62
2019-05-01T23:01:40.153Z,21.40
2019-05-01T23:04:17.215Z,22.85
2019-05-01T23:06:48.125Z,23.80
2019-05-01T23:09:23.351Z,21.73
2019-05-01T23:11:58.156Z,21.68
2019-05-01T23:14:31.866Z,20.70
2019-05-01T23:17:20.126Z,24.25
2019-05-01T23:19:53.466Z,21.23
2019-05-01T23:22:26.500Z,23.40
2019-05-01T23:25:00.057Z,25.25
2019-05-01T23:27:34.201Z,26.20
2019-05-01T23:30:09.798Z,20.23
2019-05-01T23:32:43.604Z,21.37
2019-05-01T23:35:16.732Z,23.32
2019-05-01T23:37:49.882Z,25.55
2019-05-01T23:40:22.731Z,24.50
2019-05-01T23:42:56.730Z,19.65
2019-05-01T23:45:30.026Z,20.85
2019-05-01T23:48:03.800Z,25.40
2019-05-01T23:50:37.458Z,20.12
2019-05-01T23:53:14.020Z,23.73
2019-05-01T23:55:47.292Z,23.12
2019-05-01T23:58:20.579Z,25.32
